sensor_id;sensor_type;location;lat;lon;timestamp;temperature;humidity
52495;DHT22;38405;53.212;5.660;2023-08-21T00:00:56;13.90;99.90
52495;DHT22;38405;53.212;5.660;2023-08-21T00:03:22;13.90;99.90
52495;DHT22;38405;53.212;5.660;2023-08-21T00:05:47;13.90;99.90
52495;DHT22;38405;53.212;5.660;2023-08-21T00:08:13;13.80;99.90
52495;DHT22;38405;53.212;5.660;2023-08-21T00:10:39;13.70;99.90
52495;DHT22;38405;53.212;5.660;2023-08-21T00:13:06;13.40;99.90
52495;DHT22;38405;53.212;5.660;2023-08-21T00:15:32;13.30;99.90
52495;DHT22;38405;53.212;5.660;2023-08-21T00:17:58;13.20;99.90
52495;DHT22;38405;53.212;5.660;2023-08-21T00:20:24;13.10;99.90
52495;DHT22;38405;53.212;5.660;2023-08-21T00:22:49;13.10;99.90
52495;DHT22;38405;53.212;5.660;2023-08-21T00:25:15;13.10;99.90
52495;DHT22;38405;53.212;5.660;2023-08-21T00:27:44;13.20;99.90
52495;DHT22;38405;53.212;5.660;2023-08-21T00:30:10;13.20;99.90
52495;DHT22;38405;53.212;5.660;2023-08-21T00:32:36;13.30;99.90
52495;DHT22;38405;53.212;5.660;2023-08-21T00:35:01;13.40;99.90
52495;DHT22;38405;53.212;5.660;2023-08-21T00:37:30;13.30;99.90
52495;DHT22;38405;53.212;5.660;2023-08-21T00:39:55;13.40;99.90
52495;DHT22;38405;53.212;5.660;2023-08-21T00:42:21;13.30;99.90
52495;DHT22;38405;53.212;5.660;2023-08-21T00:44:49;13.30;99.90
52495;DHT22;38405;53.212;5.660;2023-08-21T00:47:15;13.20;99.90
52495;DHT22;38405;53.212;5.660;2023-08-21T00:49:41;13.20;99.90
52495;DHT22;38405;53.212;5.660;2023-08-21T00:52:11;13.10;99.90
52495;DHT22;38405;53.212;5.660;2023-08-21T00:54:38;13.10;99.90
52495;DHT22;38405;53.212;5.660;2023-08-21T00:57:04;13.10;99.90
52495;DHT22;38405;53.212;5.660;2023-08-21T00:59:30;13.00;99.90
52495;DHT22;38405;53.212;5.660;2023-08-21T01:01:56;13.00;99.90
52495;DHT22;38405;53.212;5.660;2023-08-21T01:04:22;12.90;99.90
52495;DHT22;38405;53.212;5.660;2023-08-21T01:07:00;12.90;99.90
52495;DHT22;38405;53.212;5.660;2023-08-21T01:09:43;12.90;99.90
52495;DHT22;38405;53.212;5.660;2023-08-21T01:12:34;13.00;99.90
52495;DHT22;38405;53.212;5.660;2023-08-21T01:15:03;13.20;99.90
52495;DHT22;38405;53.212;5.660;2023-08-21T01:17:30;13.20;99.90
52495;DHT22;38405;53.212;5.660;2023-08-21T01:19:58;13.20;99.90
52495;DHT22;38405;53.212;5.660;2023-08-21T01:22:39;13.10;99.90
52495;DHT22;38405;53.212;5.660;2023-08-21T01:25:06;13.10;99.90
52495;DHT22;38405;53.212;5.660;2023-08-21T01:27:35;13.20;99.90
52495;DHT22;38405;53.212;5.660;2023-08-21T01:30:02;13.30;99.90
52495;DHT22;38405;53.212;5.660;2023-08-21T01:32:58;13.30;99.90
52495;DHT22;38405;53.212;5.660;2023-08-21T01:35:25;13.20;99.90
52495;DHT22;38405;53.212;5.660;2023-08-21T01:37:51;13.10;99.90
52495;DHT22;38405;53.212;5.660;2023-08-21T01:40:24;13.00;99.90
52495;DHT22;38405;53.212;5.660;2023-08-21T01:42:52;12.90;99.90
52495;DHT22;38405;53.212;5.660;2023-08-21T01:45:18;12.90;99.90
52495;DHT22;38405;53.212;5.660;2023-08-21T01:47:46;12.80;99.90
52495;DHT22;38405;53.212;5.660;2023-08-21T01:50:12;12.80;99.90
52495;DHT22;38405;53.212;5.660;2023-08-21T01:52:38;12.70;99.90
52495;DHT22;38405;53.212;5.660;2023-08-21T01:55:04;12.60;99.90
52495;DHT22;38405;53.212;5.660;2023-08-21T01:57:30;12.50;99.90
52495;DHT22;38405;53.212;5.660;2023-08-21T01:59:55;12.40;99.90
52495;DHT22;38405;53.212;5.660;2023-08-21T02:02:21;12.40;99.90
52495;DHT22;38405;53.212;5.660;2023-08-21T02:04:47;12.30;99.90
52495;DHT22;38405;53.212;5.660;2023-08-21T02:07:12;12.30;99.90
52495;DHT22;38405;53.212;5.660;2023-08-21T02:09:38;12.30;99.90
52495;DHT22;38405;53.212;5.660;2023-08-21T02:12:04;12.40;99.90
52495;DHT22;38405;53.212;5.660;2023-08-21T02:14:29;12.50;99.90
52495;DHT22;38405;53.212;5.660;2023-08-21T02:16:55;12.70;99.90
52495;DHT22;38405;53.212;5.660;2023-08-21T02:19:21;12.70;99.90
52495;DHT22;38405;53.212;5.660;2023-08-21T02:21:46;12.80;99.90
52495;DHT22;38405;53.212;5.660;2023-08-21T02:24:12;12.90;99.90
52495;DHT22;38405;53.212;5.660;2023-08-21T02:26:38;12.90;99.90
52495;DHT22;38405;53.212;5.660;2023-08-21T02:29:03;13.00;99.90
52495;DHT22;38405;53.212;5.660;2023-08-21T02:31:29;13.00;99.90
52495;DHT22;38405;53.212;5.660;2023-08-21T02:33:55;13.10;99.90
52495;DHT22;38405;53.212;5.660;2023-08-21T02:36:20;13.10;99.90
52495;DHT22;38405;53.212;5.660;2023-08-21T02:38:46;13.20;99.90
52495;DHT22;38405;53.212;5.660;2023-08-21T02:41:12;13.20;99.90
52495;DHT22;38405;53.212;5.660;2023-08-21T02:43:37;13.10;99.90
52495;DHT22;38405;53.212;5.660;2023-08-21T02:46:03;13.10;99.90
52495;DHT22;38405;53.212;5.660;2023-08-21T02:48:29;13.00;99.90
52495;DHT22;38405;53.212;5.660;2023-08-21T02:50:54;12.90;99.90
52495;DHT22;38405;53.212;5.660;2023-08-21T02:53:20;12.70;99.90
52495;DHT22;38405;53.212;5.660;2023-08-21T02:55:46;12.50;99.90
52495;DHT22;38405;53.212;5.660;2023-08-21T02:58:11;12.40;99.90
52495;DHT22;38405;53.212;5.660;2023-08-21T03:00:37;12.30;99.90
52495;DHT22;38405;53.212;5.660;2023-08-21T03:03:06;12.30;99.90
52495;DHT22;38405;53.212;5.660;2023-08-21T03:05:31;12.40;99.90
52495;DHT22;38405;53.212;5.660;2023-08-21T03:07:57;12.50;99.90
52495;DHT22;38405;53.212;5.660;2023-08-21T03:10:25;12.70;99.90
52495;DHT22;38405;53.212;5.660;2023-08-21T03:12:55;12.80;99.90
52495;DHT22;38405;53.212;5.660;2023-08-21T03:15:21;13.00;99.90
52495;DHT22;38405;53.212;5.660;2023-08-21T03:17:46;13.10;99.90
52495;DHT22;38405;53.212;5.660;2023-08-21T03:20:12;13.10;99.90
52495;DHT22;38405;53.212;5.660;2023-08-21T03:22:38;13.10;99.90
52495;DHT22;38405;53.212;5.660;2023-08-21T03:25:04;13.10;99.90
52495;DHT22;38405;53.212;5.660;2023-08-21T03:27:30;13.10;99.90
52495;DHT22;38405;53.212;5.660;2023-08-21T03:29:55;13.00;99.90
52495;DHT22;38405;53.212;5.660;2023-08-21T03:32:21;13.00;99.90
52495;DHT22;38405;53.212;5.660;2023-08-21T03:34:46;13.00;99.90
52495;DHT22;38405;53.212;5.660;2023-08-21T03:37:12;13.00;99.90
52495;DHT22;38405;53.212;5.660;2023-08-21T03:39:41;12.90;99.90
52495;DHT22;38405;53.212;5.660;2023-08-21T03:42:06;12.90;99.90
52495;DHT22;38405;53.212;5.660;2023-08-21T03:44:32;12.90;99.90
52495;DHT22;38405;53.212;5.660;2023-08-21T03:47:02;13.00;99.90
52495;DHT22;38405;53.212;5.660;2023-08-21T03:49:27;13.00;99.90
52495;DHT22;38405;53.212;5.660;2023-08-21T03:51:53;12.90;99.90
52495;DHT22;38405;53.212;5.660;2023-08-21T03:54:18;12.90;99.90
52495;DHT22;38405;53.212;5.660;2023-08-21T03:56:44;12.90;99.90
52495;DHT22;38405;53.212;5.660;2023-08-21T03:59:10;12.90;99.90
52495;DHT22;38405;53.212;5.660;2023-08-21T04:01:35;12.90;99.90
52495;DHT22;38405;53.212;5.660;2023-08-21T04:04:01;12.90;99.90
52495;DHT22;38405;53.212;5.660;2023-08-21T04:06:27;12.80;99.90
52495;DHT22;38405;53.212;5.660;2023-08-21T04:08:52;12.80;99.90
52495;DHT22;38405;53.212;5.660;2023-08-21T04:11:18;12.80;99.90
52495;DHT22;38405;53.212;5.660;2023-08-21T04:13:44;12.80;99.90
52495;DHT22;38405;53.212;5.660;2023-08-21T04:16:12;12.80;99.90
52495;DHT22;38405;53.212;5.660;2023-08-21T04:18:38;12.80;99.90
52495;DHT22;38405;53.212;5.660;2023-08-21T04:21:04;12.80;99.90
52495;DHT22;38405;53.212;5.660;2023-08-21T04:23:30;12.90;99.90
52495;DHT22;38405;53.212;5.660;2023-08-21T04:26:05;12.90;99.90
52495;DHT22;38405;53.212;5.660;2023-08-21T04:28:32;12.90;99.90
52495;DHT22;38405;53.212;5.660;2023-08-21T04:30:57;13.00;99.90
52495;DHT22;38405;53.212;5.660;2023-08-21T04:33:28;13.00;99.90
52495;DHT22;38405;53.212;5.660;2023-08-21T04:35:54;13.00;99.90
52495;DHT22;38405;53.212;5.660;2023-08-21T04:38:20;13.00;99.90
52495;DHT22;38405;53.212;5.660;2023-08-21T04:40:45;13.00;99.90
52495;DHT22;38405;53.212;5.660;2023-08-21T04:43:11;12.90;99.90
52495;DHT22;38405;53.212;5.660;2023-08-21T04:45:36;13.00;99.90
52495;DHT22;38405;53.212;5.660;2023-08-21T04:48:05;13.00;99.90
52495;DHT22;38405;53.212;5.660;2023-08-21T04:50:31;13.10;99.90
52495;DHT22;38405;53.212;5.660;2023-08-21T04:52:59;13.10;99.90
52495;DHT22;38405;53.212;5.660;2023-08-21T04:55:25;13.20;99.90
52495;DHT22;38405;53.212;5.660;2023-08-21T04:57:50;13.20;99.90
52495;DHT22;38405;53.212;5.660;2023-08-21T05:00:16;13.30;99.90
52495;DHT22;38405;53.212;5.660;2023-08-21T05:02:42;13.30;99.90
52495;DHT22;38405;53.212;5.660;2023-08-21T05:05:08;13.30;99.90
52495;DHT22;38405;53.212;5.660;2023-08-21T05:07:34;13.40;99.90
52495;DHT22;38405;53.212;5.660;2023-08-21T05:10:00;13.40;99.90
52495;DHT22;38405;53.212;5.660;2023-08-21T05:12:26;13.40;99.90
52495;DHT22;38405;53.212;5.660;2023-08-21T05:14:52;13.40;99.90
52495;DHT22;38405;53.212;5.660;2023-08-21T05:17:17;13.50;99.90
52495;DHT22;38405;53.212;5.660;2023-08-21T05:19:43;13.50;99.90
52495;DHT22;38405;53.212;5.660;2023-08-21T05:22:09;13.50;99.90
52495;DHT22;38405;53.212;5.660;2023-08-21T05:24:34;13.50;99.90
52495;DHT22;38405;53.212;5.660;2023-08-21T05:27:00;13.50;99.90
52495;DHT22;38405;53.212;5.660;2023-08-21T05:29:26;13.50;99.90
52495;DHT22;38405;53.212;5.660;2023-08-21T05:31:51;13.50;99.90
52495;DHT22;38405;53.212;5.660;2023-08-21T05:34:17;13.60;99.90
52495;DHT22;38405;53.212;5.660;2023-08-21T05:36:43;13.60;99.90
52495;DHT22;38405;53.212;5.660;2023-08-21T05:39:08;13.60;99.90
52495;DHT22;38405;53.212;5.660;2023-08-21T05:41:37;13.50;99.90
52495;DHT22;38405;53.212;5.660;2023-08-21T05:44:02;13.50;99.90
52495;DHT22;38405;53.212;5.660;2023-08-21T05:46:29;13.60;99.90
52495;DHT22;38405;53.212;5.660;2023-08-21T05:48:55;13.70;99.90
52495;DHT22;38405;53.212;5.660;2023-08-21T05:51:20;13.70;99.90
52495;DHT22;38405;53.212;5.660;2023-08-21T05:53:46;13.80;99.90
52495;DHT22;38405;53.212;5.660;2023-08-21T05:56:12;13.90;99.90
52495;DHT22;38405;53.212;5.660;2023-08-21T05:58:37;13.90;99.90
52495;DHT22;38405;53.212;5.660;2023-08-21T06:01:03;14.00;99.90
52495;DHT22;38405;53.212;5.660;2023-08-21T06:03:28;14.10;99.90
52495;DHT22;38405;53.212;5.660;2023-08-21T06:05:54;14.20;99.90
52495;DHT22;38405;53.212;5.660;2023-08-21T06:08:20;14.30;99.90
52495;DHT22;38405;53.212;5.660;2023-08-21T06:10:51;14.50;99.90
52495;DHT22;38405;53.212;5.660;2023-08-21T06:13:17;14.60;99.90
52495;DHT22;38405;53.212;5.660;2023-08-21T06:15:45;14.80;99.90
52495;DHT22;38405;53.212;5.660;2023-08-21T06:18:13;14.90;99.90
52495;DHT22;38405;53.212;5.660;2023-08-21T06:20:42;15.20;99.90
52495;DHT22;38405;53.212;5.660;2023-08-21T06:23:08;15.40;99.90
52495;DHT22;38405;53.212;5.660;2023-08-21T06:25:34;15.50;99.90
52495;DHT22;38405;53.212;5.660;2023-08-21T06:28:00;15.70;99.90
52495;DHT22;38405;53.212;5.660;2023-08-21T06:30:26;15.90;99.90
52495;DHT22;38405;53.212;5.660;2023-08-21T06:32:52;16.00;99.90
52495;DHT22;38405;53.212;5.660;2023-08-21T06:35:18;16.20;99.90
52495;DHT22;38405;53.212;5.660;2023-08-21T06:37:44;16.30;99.90
52495;DHT22;38405;53.212;5.660;2023-08-21T06:40:09;16.50;99.90
52495;DHT22;38405;53.212;5.660;2023-08-21T06:42:36;16.60;99.90
52495;DHT22;38405;53.212;5.660;2023-08-21T06:45:06;16.70;99.90
52495;DHT22;38405;53.212;5.660;2023-08-21T06:47:32;16.80;99.90
52495;DHT22;38405;53.212;5.660;2023-08-21T06:49:57;17.00;99.90
52495;DHT22;38405;53.212;5.660;2023-08-21T06:52:23;17.40;99.90
52495;DHT22;38405;53.212;5.660;2023-08-21T06:54:49;18.50;99.90
52495;DHT22;38405;53.212;5.660;2023-08-21T06:57:14;19.70;99.90
52495;DHT22;38405;53.212;5.660;2023-08-21T06:59:40;20.90;99.90
52495;DHT22;38405;53.212;5.660;2023-08-21T07:02:06;22.00;99.90
52495;DHT22;38405;53.212;5.660;2023-08-21T07:04:32;23.00;99.90
52495;DHT22;38405;53.212;5.660;2023-08-21T07:07:00;24.00;99.90
52495;DHT22;38405;53.212;5.660;2023-08-21T07:09:26;24.70;99.90
52495;DHT22;38405;53.212;5.660;2023-08-21T07:11:52;25.40;99.90
52495;DHT22;38405;53.212;5.660;2023-08-21T07:14:17;26.00;99.90
52495;DHT22;38405;53.212;5.660;2023-08-21T07:16:43;26.40;99.90
52495;DHT22;38405;53.212;5.660;2023-08-21T07:19:09;26.80;99.90
52495;DHT22;38405;53.212;5.660;2023-08-21T07:21:35;27.30;99.90
52495;DHT22;38405;53.212;5.660;2023-08-21T07:24:04;27.70;99.90
52495;DHT22;38405;53.212;5.660;2023-08-21T07:26:31;28.00;99.90
52495;DHT22;38405;53.212;5.660;2023-08-21T07:28:56;28.30;99.90
52495;DHT22;38405;53.212;5.660;2023-08-21T07:31:22;28.50;99.90
52495;DHT22;38405;53.212;5.660;2023-08-21T07:33:48;28.80;99.90
52495;DHT22;38405;53.212;5.660;2023-08-21T07:36:14;29.00;99.90
52495;DHT22;38405;53.212;5.660;2023-08-21T07:38:43;29.30;99.90
52495;DHT22;38405;53.212;5.660;2023-08-21T07:41:10;29.70;99.90
52495;DHT22;38405;53.212;5.660;2023-08-21T07:43:37;30.10;99.90
52495;DHT22;38405;53.212;5.660;2023-08-21T07:46:04;30.40;99.90
52495;DHT22;38405;53.212;5.660;2023-08-21T07:48:30;30.50;99.90
52495;DHT22;38405;53.212;5.660;2023-08-21T07:50:56;30.60;99.90
52495;DHT22;38405;53.212;5.660;2023-08-21T07:53:22;30.80;99.90
52495;DHT22;38405;53.212;5.660;2023-08-21T07:55:48;31.30;99.90
52495;DHT22;38405;53.212;5.660;2023-08-21T07:58:13;31.40;99.90
52495;DHT22;38405;53.212;5.660;2023-08-21T08:00:39;31.40;99.90
52495;DHT22;38405;53.212;5.660;2023-08-21T08:03:05;31.40;99.70
52495;DHT22;38405;53.212;5.660;2023-08-21T08:05:31;31.40;99.20
52495;DHT22;38405;53.212;5.660;2023-08-21T08:07:58;31.70;99.10
52495;DHT22;38405;53.212;5.660;2023-08-21T08:10:24;31.90;98.60
52495;DHT22;38405;53.212;5.660;2023-08-21T08:12:50;31.90;98.20
52495;DHT22;38405;53.212;5.660;2023-08-21T08:15:16;32.10;98.40
52495;DHT22;38405;53.212;5.660;2023-08-21T08:17:42;32.20;97.90
52495;DHT22;38405;53.212;5.660;2023-08-21T08:20:08;32.10;97.30
52495;DHT22;38405;53.212;5.660;2023-08-21T08:22:34;32.10;97.20
52495;DHT22;38405;53.212;5.660;2023-08-21T08:25:00;32.10;97.10
52495;DHT22;38405;53.212;5.660;2023-08-21T08:27:25;32.10;96.70
52495;DHT22;38405;53.212;5.660;2023-08-21T08:29:51;32.30;96.60
52495;DHT22;38405;53.212;5.660;2023-08-21T08:32:17;32.30;96.20
52495;DHT22;38405;53.212;5.660;2023-08-21T08:34:42;32.20;95.80
52495;DHT22;38405;53.212;5.660;2023-08-21T08:37:12;32.40;95.50
52495;DHT22;38405;53.212;5.660;2023-08-21T08:39:37;32.50;95.10
52495;DHT22;38405;53.212;5.660;2023-08-21T08:42:05;32.50;94.70
52495;DHT22;38405;53.212;5.660;2023-08-21T08:44:31;32.70;94.60
52495;DHT22;38405;53.212;5.660;2023-08-21T08:46:59;32.70;94.10
52495;DHT22;38405;53.212;5.660;2023-08-21T08:49:26;32.70;93.90
52495;DHT22;38405;53.212;5.660;2023-08-21T08:51:52;32.90;93.80
52495;DHT22;38405;53.212;5.660;2023-08-21T08:54:20;33.00;93.60
52495;DHT22;38405;53.212;5.660;2023-08-21T08:56:46;32.90;93.30
52495;DHT22;38405;53.212;5.660;2023-08-21T08:59:16;32.80;93.30
52495;DHT22;38405;53.212;5.660;2023-08-21T09:01:41;32.80;93.60
52495;DHT22;38405;53.212;5.660;2023-08-21T09:04:08;32.90;93.70
52495;DHT22;38405;53.212;5.660;2023-08-21T09:06:34;33.10;93.20
52495;DHT22;38405;53.212;5.660;2023-08-21T09:08:59;33.00;92.70
52495;DHT22;38405;53.212;5.660;2023-08-21T09:11:26;33.00;92.80
52495;DHT22;38405;53.212;5.660;2023-08-21T09:13:53;32.70;92.30
52495;DHT22;38405;53.212;5.660;2023-08-21T09:16:21;32.60;92.40
52495;DHT22;38405;53.212;5.660;2023-08-21T09:18:48;32.30;92.40
52495;DHT22;38405;53.212;5.660;2023-08-21T09:21:21;32.20;92.80
52495;DHT22;38405;53.212;5.660;2023-08-21T09:23:47;32.20;92.30
52495;DHT22;38405;53.212;5.660;2023-08-21T09:26:23;32.10;92.70
52495;DHT22;38405;53.212;5.660;2023-08-21T09:28:50;31.90;92.60
52495;DHT22;38405;53.212;5.660;2023-08-21T09:31:31;31.70;92.90
52495;DHT22;38405;53.212;5.660;2023-08-21T09:34:01;31.30;92.90
52495;DHT22;38405;53.212;5.660;2023-08-21T09:36:30;31.10;93.70
52495;DHT22;38405;53.212;5.660;2023-08-21T09:38:56;30.60;93.40
52495;DHT22;38405;53.212;5.660;2023-08-21T09:41:23;30.20;93.50
52495;DHT22;38405;53.212;5.660;2023-08-21T09:43:49;29.80;93.70
52495;DHT22;38405;53.212;5.660;2023-08-21T09:46:24;29.50;93.80
52495;DHT22;38405;53.212;5.660;2023-08-21T09:48:52;29.10;93.50
52495;DHT22;38405;53.212;5.660;2023-08-21T09:51:18;28.80;94.50
52495;DHT22;38405;53.212;5.660;2023-08-21T09:53:44;28.60;94.60
52495;DHT22;38405;53.212;5.660;2023-08-21T09:56:12;28.50;94.50
52495;DHT22;38405;53.212;5.660;2023-08-21T09:58:37;28.40;95.10
52495;DHT22;38405;53.212;5.660;2023-08-21T10:01:07;28.40;95.20
52495;DHT22;38405;53.212;5.660;2023-08-21T10:03:43;28.50;95.20
52495;DHT22;38405;53.212;5.660;2023-08-21T10:06:16;28.40;95.10
52495;DHT22;38405;53.212;5.660;2023-08-21T10:08:46;28.40;94.90
52495;DHT22;38405;53.212;5.660;2023-08-21T10:11:12;28.30;95.10
52495;DHT22;38405;53.212;5.660;2023-08-21T10:13:39;28.40;95.40
52495;DHT22;38405;53.212;5.660;2023-08-21T10:16:06;28.50;95.40
52495;DHT22;38405;53.212;5.660;2023-08-21T10:18:35;28.50;94.90
52495;DHT22;38405;53.212;5.660;2023-08-21T10:21:19;28.40;94.90
52495;DHT22;38405;53.212;5.660;2023-08-21T10:23:49;28.30;94.80
52495;DHT22;38405;53.212;5.660;2023-08-21T10:26:19;28.30;95.20
52495;DHT22;38405;53.212;5.660;2023-08-21T10:28:54;28.40;95.40
52495;DHT22;38405;53.212;5.660;2023-08-21T10:31:58;28.30;95.30
52495;DHT22;38405;53.212;5.660;2023-08-21T10:34:31;28.40;95.40
52495;DHT22;38405;53.212;5.660;2023-08-21T10:37:09;28.30;95.40
52495;DHT22;38405;53.212;5.660;2023-08-21T10:39:37;28.30;95.80
52495;DHT22;38405;53.212;5.660;2023-08-21T10:42:11;28.40;95.90
52495;DHT22;38405;53.212;5.660;2023-08-21T10:47:21;28.70;95.40
52495;DHT22;38405;53.212;5.660;2023-08-21T10:49:50;28.80;95.70
52495;DHT22;38405;53.212;5.660;2023-08-21T10:52:40;28.80;95.70
52495;DHT22;38405;53.212;5.660;2023-08-21T10:55:14;28.60;95.30
52495;DHT22;38405;53.212;5.660;2023-08-21T10:57:40;28.60;95.70
52495;DHT22;38405;53.212;5.660;2023-08-21T11:00:17;28.70;95.70
52495;DHT22;38405;53.212;5.660;2023-08-21T11:02:48;28.70;95.40
52495;DHT22;38405;53.212;5.660;2023-08-21T11:05:17;28.70;95.30
52495;DHT22;38405;53.212;5.660;2023-08-21T11:07:45;28.60;95.50
52495;DHT22;38405;53.212;5.660;2023-08-21T11:10:14;28.70;95.70
52495;DHT22;38405;53.212;5.660;2023-08-21T11:12:54;28.70;95.70
52495;DHT22;38405;53.212;5.660;2023-08-21T11:15:25;28.90;96.00
52495;DHT22;38405;53.212;5.660;2023-08-21T11:17:59;29.10;96.00
52495;DHT22;38405;53.212;5.660;2023-08-21T11:20:33;29.20;95.70
52495;DHT22;38405;53.212;5.660;2023-08-21T11:23:00;29.00;95.10
52495;DHT22;38405;53.212;5.660;2023-08-21T11:25:28;28.80;94.70
52495;DHT22;38405;53.212;5.660;2023-08-21T11:27:55;28.60;94.90
52495;DHT22;38405;53.212;5.660;2023-08-21T11:30:24;28.30;94.90
52495;DHT22;38405;53.212;5.660;2023-08-21T11:35:31;28.20;94.80
52495;DHT22;38405;53.212;5.660;2023-08-21T11:37:57;28.20;95.40
52495;DHT22;38405;53.212;5.660;2023-08-21T11:40:23;28.10;95.80
52495;DHT22;38405;53.212;5.660;2023-08-21T11:42:52;28.10;95.90
52495;DHT22;38405;53.212;5.660;2023-08-21T11:45:20;28.10;95.70
52495;DHT22;38405;53.212;5.660;2023-08-21T11:47:47;28.10;95.60
52495;DHT22;38405;53.212;5.660;2023-08-21T11:50:14;28.00;95.40
52495;DHT22;38405;53.212;5.660;2023-08-21T11:52:43;28.00;95.80
52495;DHT22;38405;53.212;5.660;2023-08-21T11:55:09;27.90;96.10
52495;DHT22;38405;53.212;5.660;2023-08-21T11:57:51;27.90;96.60
52495;DHT22;38405;53.212;5.660;2023-08-21T12:00:27;27.70;95.90
52495;DHT22;38405;53.212;5.660;2023-08-21T12:03:00;27.60;96.70
52495;DHT22;38405;53.212;5.660;2023-08-21T12:05:28;27.60;97.00
52495;DHT22;38405;53.212;5.660;2023-08-21T12:07:54;27.60;97.00
52495;DHT22;38405;53.212;5.660;2023-08-21T12:10:28;27.60;97.20
52495;DHT22;38405;53.212;5.660;2023-08-21T12:12:54;27.60;97.40
52495;DHT22;38405;53.212;5.660;2023-08-21T12:15:20;27.60;96.90
52495;DHT22;38405;53.212;5.660;2023-08-21T12:17:46;27.40;96.70
52495;DHT22;38405;53.212;5.660;2023-08-21T12:20:11;27.20;96.80
52495;DHT22;38405;53.212;5.660;2023-08-21T12:22:38;27.10;96.80
52495;DHT22;38405;53.212;5.660;2023-08-21T12:25:05;27.10;96.70
52495;DHT22;38405;53.212;5.660;2023-08-21T12:27:31;27.10;96.50
52495;DHT22;38405;53.212;5.660;2023-08-21T12:29:57;27.00;96.50
52495;DHT22;38405;53.212;5.660;2023-08-21T12:32:22;27.00;96.30
52495;DHT22;38405;53.212;5.660;2023-08-21T12:34:48;26.80;96.20
52495;DHT22;38405;53.212;5.660;2023-08-21T12:37:14;26.70;96.00
52495;DHT22;38405;53.212;5.660;2023-08-21T12:39:39;26.50;95.90
52495;DHT22;38405;53.212;5.660;2023-08-21T12:42:05;26.30;95.90
52495;DHT22;38405;53.212;5.660;2023-08-21T12:44:33;26.20;96.20
52495;DHT22;38405;53.212;5.660;2023-08-21T12:46:59;26.10;96.20
52495;DHT22;38405;53.212;5.660;2023-08-21T12:49:24;26.00;96.30
52495;DHT22;38405;53.212;5.660;2023-08-21T12:51:50;26.00;96.10
52495;DHT22;38405;53.212;5.660;2023-08-21T12:54:19;25.90;96.20
52495;DHT22;38405;53.212;5.660;2023-08-21T12:56:44;25.80;96.10
52495;DHT22;38405;53.212;5.660;2023-08-21T12:59:10;25.70;96.20
52495;DHT22;38405;53.212;5.660;2023-08-21T13:01:35;25.60;96.50
52495;DHT22;38405;53.212;5.660;2023-08-21T13:04:03;25.50;96.60
52495;DHT22;38405;53.212;5.660;2023-08-21T13:06:28;25.50;96.40
52495;DHT22;38405;53.212;5.660;2023-08-21T13:08:54;25.50;96.40
52495;DHT22;38405;53.212;5.660;2023-08-21T13:11:20;25.40;96.60
52495;DHT22;38405;53.212;5.660;2023-08-21T13:13:45;25.30;96.80
52495;DHT22;38405;53.212;5.660;2023-08-21T13:16:11;25.20;96.60
52495;DHT22;38405;53.212;5.660;2023-08-21T13:18:37;25.10;96.70
52495;DHT22;38405;53.212;5.660;2023-08-21T13:21:03;25.10;96.80
52495;DHT22;38405;53.212;5.660;2023-08-21T13:23:29;25.10;96.90
52495;DHT22;38405;53.212;5.660;2023-08-21T13:25:56;25.10;97.00
52495;DHT22;38405;53.212;5.660;2023-08-21T13:28:23;25.10;97.00
52495;DHT22;38405;53.212;5.660;2023-08-21T13:30:49;25.10;96.70
52495;DHT22;38405;53.212;5.660;2023-08-21T13:33:14;25.00;96.80
52495;DHT22;38405;53.212;5.660;2023-08-21T13:35:40;25.00;96.80
52495;DHT22;38405;53.212;5.660;2023-08-21T13:38:06;24.90;96.90
52495;DHT22;38405;53.212;5.660;2023-08-21T13:40:32;24.90;97.10
52495;DHT22;38405;53.212;5.660;2023-08-21T13:42:57;24.90;97.30
52495;DHT22;38405;53.212;5.660;2023-08-21T13:45:26;24.90;97.20
52495;DHT22;38405;53.212;5.660;2023-08-21T13:47:52;24.80;97.30
52495;DHT22;38405;53.212;5.660;2023-08-21T13:50:18;24.80;97.40
52495;DHT22;38405;53.212;5.660;2023-08-21T13:52:45;24.70;97.50
52495;DHT22;38405;53.212;5.660;2023-08-21T13:55:12;24.70;97.30
52495;DHT22;38405;53.212;5.660;2023-08-21T13:57:38;24.60;97.10
52495;DHT22;38405;53.212;5.660;2023-08-21T14:00:05;24.50;97.10
52495;DHT22;38405;53.212;5.660;2023-08-21T14:02:35;24.50;97.70
52495;DHT22;38405;53.212;5.660;2023-08-21T14:05:01;24.40;97.90
52495;DHT22;38405;53.212;5.660;2023-08-21T14:07:30;24.30;98.20
52495;DHT22;38405;53.212;5.660;2023-08-21T14:09:56;24.30;98.60
52495;DHT22;38405;53.212;5.660;2023-08-21T14:12:21;24.30;98.60
52495;DHT22;38405;53.212;5.660;2023-08-21T14:14:47;24.30;98.80
52495;DHT22;38405;53.212;5.660;2023-08-21T14:17:12;24.20;98.90
52495;DHT22;38405;53.212;5.660;2023-08-21T14:19:38;24.20;98.90
52495;DHT22;38405;53.212;5.660;2023-08-21T14:22:04;24.20;98.80
52495;DHT22;38405;53.212;5.660;2023-08-21T14:24:30;24.20;99.00
52495;DHT22;38405;53.212;5.660;2023-08-21T14:26:56;24.20;99.20
52495;DHT22;38405;53.212;5.660;2023-08-21T14:29:22;24.20;99.30
52495;DHT22;38405;53.212;5.660;2023-08-21T14:31:48;24.30;99.30
52495;DHT22;38405;53.212;5.660;2023-08-21T14:34:15;24.30;99.10
52495;DHT22;38405;53.212;5.660;2023-08-21T14:36:41;24.40;99.00
52495;DHT22;38405;53.212;5.660;2023-08-21T14:39:08;24.30;98.90
52495;DHT22;38405;53.212;5.660;2023-08-21T14:41:42;24.30;99.10
52495;DHT22;38405;53.212;5.660;2023-08-21T14:44:08;24.30;99.10
52495;DHT22;38405;53.212;5.660;2023-08-21T14:46:34;24.30;99.10
52495;DHT22;38405;53.212;5.660;2023-08-21T14:49:00;24.30;99.10
52495;DHT22;38405;53.212;5.660;2023-08-21T14:51:26;24.30;99.30
52495;DHT22;38405;53.212;5.660;2023-08-21T14:53:51;24.30;99.30
52495;DHT22;38405;53.212;5.660;2023-08-21T14:56:17;24.30;99.30
52495;DHT22;38405;53.212;5.660;2023-08-21T14:58:46;24.30;99.30
52495;DHT22;38405;53.212;5.660;2023-08-21T15:01:12;24.50;99.50
52495;DHT22;38405;53.212;5.660;2023-08-21T15:03:37;24.40;99.30
52495;DHT22;38405;53.212;5.660;2023-08-21T15:06:03;24.30;98.80
52495;DHT22;38405;53.212;5.660;2023-08-21T15:08:29;24.20;99.00
52495;DHT22;38405;53.212;5.660;2023-08-21T15:10:57;24.30;99.30
52495;DHT22;38405;53.212;5.660;2023-08-21T15:13:23;24.30;99.40
52495;DHT22;38405;53.212;5.660;2023-08-21T15:15:49;24.40;99.40
52495;DHT22;38405;53.212;5.660;2023-08-21T15:18:14;24.40;99.20
52495;DHT22;38405;53.212;5.660;2023-08-21T15:20:40;24.30;99.10
52495;DHT22;38405;53.212;5.660;2023-08-21T15:23:06;24.20;99.20
52495;DHT22;38405;53.212;5.660;2023-08-21T15:25:31;24.30;99.20
52495;DHT22;38405;53.212;5.660;2023-08-21T15:27:57;24.40;99.20
52495;DHT22;38405;53.212;5.660;2023-08-21T15:30:22;24.40;99.00
52495;DHT22;38405;53.212;5.660;2023-08-21T15:32:48;24.30;99.10
52495;DHT22;38405;53.212;5.660;2023-08-21T15:35:15;24.20;99.00